createdAt,value
2023-04-24T00:00:54.859Z,12.46
2023-04-24T00:01:59.921Z,12.41
2023-04-24T00:02:55.120Z,12.47
2023-04-24T00:03:54.977Z,12.42
2023-04-24T00:04:54.862Z,12.42
2023-04-24T00:05:54.789Z,12.45
2023-04-24T00:06:54.809Z,12.45
2023-04-24T00:07:54.767Z,12.42
2023-04-24T00:08:54.755Z,12.45
2023-04-24T00:09:54.751Z,12.41
2023-04-24T00:10:54.730Z,12.41
2023-04-24T00:11:54.768Z,12.52
2023-04-24T00:12:59.744Z,12.49
2023-04-24T00:13:54.700Z,12.50
2023-04-24T00:14:54.692Z,12.53
2023-04-24T00:15:54.679Z,12.53
2023-04-24T00:16:54.673Z,12.47
2023-04-24T00:17:54.682Z,12.54
2023-04-24T00:18:54.668Z,12.57
2023-04-24T00:19:54.635Z,12.46
2023-04-24T00:20:54.612Z,12.50
2023-04-24T00:21:54.604Z,12.50
2023-04-24T00:22:54.611Z,12.53
2023-04-24T00:23:59.614Z,12.53
2023-04-24T00:24:54.599Z,12.53
2023-04-24T00:25:54.575Z,12.52
2023-04-24T00:26:54.548Z,12.57
2023-04-24T00:27:54.539Z,12.56
2023-04-24T00:28:54.527Z,12.53
2023-04-24T00:29:54.529Z,12.54
2023-04-24T00:30:54.516Z,12.57
2023-04-24T00:31:54.541Z,12.53
2023-04-24T00:32:54.554Z,12.47
2023-04-24T00:33:54.469Z,12.57
2023-04-24T00:34:59.493Z,12.45
2023-04-24T00:35:54.450Z,12.41
2023-04-24T00:36:54.446Z,12.46
2023-04-24T00:37:54.426Z,12.38
2023-04-24T00:38:54.430Z,12.47
2023-04-24T00:39:54.418Z,12.45
2023-04-24T00:40:54.386Z,12.52
2023-04-24T00:41:54.379Z,12.53
2023-04-24T00:42:54.383Z,12.54
2023-04-24T00:43:54.359Z,12.53
2023-04-24T00:44:54.350Z,12.59
2023-04-24T00:45:59.402Z,12.57
2023-04-24T00:46:54.321Z,12.52
2023-04-24T00:47:54.394Z,12.57
2023-04-24T00:48:54.325Z,12.57
2023-04-24T00:49:54.296Z,12.50
2023-04-24T00:50:54.272Z,12.50
2023-04-24T00:51:54.264Z,12.53
2023-04-24T00:52:54.309Z,12.42
2023-04-24T00:53:54.243Z,12.50
2023-04-24T00:54:54.270Z,12.45
2023-04-24T00:55:54.224Z,12.49
2023-04-24T00:56:59.228Z,12.45
2023-04-24T00:57:54.196Z,12.45
2023-04-24T00:58:54.182Z,12.45
2023-04-24T00:59:54.184Z,12.41
2023-04-24T01:00:54.202Z,12.41
2023-04-24T01:01:54.206Z,12.45
2023-04-24T01:02:54.230Z,12.42
2023-04-24T01:03:54.301Z,12.45
2023-04-24T01:04:54.147Z,12.41
2023-04-24T01:05:54.109Z,12.41
2023-04-24T01:06:54.126Z,12.46
2023-04-24T01:07:59.107Z,12.47
2023-04-24T01:08:54.074Z,12.49
2023-04-24T01:09:54.122Z,12.46
2023-04-24T01:10:54.076Z,12.47
2023-04-24T01:11:54.041Z,12.45
2023-04-24T01:12:54.049Z,12.38
2023-04-24T01:13:54.027Z,12.39
2023-04-24T01:14:54.020Z,12.39
2023-04-24T01:15:54.044Z,12.49
2023-04-24T01:16:53.980Z,12.38
2023-04-24T01:17:54.037Z,12.45
2023-04-24T01:18:59.003Z,12.37
2023-04-24T01:19:53.968Z,12.38
2023-04-24T01:20:53.941Z,12.38
2023-04-24T01:21:53.940Z,12.50
2023-04-24T01:22:53.916Z,12.49
2023-04-24T01:23:53.920Z,12.38
2023-04-24T01:24:53.925Z,12.45
2023-04-24T01:25:53.890Z,12.45
2023-04-24T01:26:53.889Z,12.45
2023-04-24T01:27:53.860Z,12.45
2023-04-24T01:28:53.847Z,12.46
2023-04-24T01:29:58.904Z,12.35
2023-04-24T01:30:53.879Z,12.35
2023-04-24T01:31:53.813Z,12.35
2023-04-24T01:32:53.862Z,12.24
2023-04-24T01:33:53.795Z,12.34
2023-04-24T01:34:53.776Z,12.35
2023-04-24T01:35:53.787Z,12.23
2023-04-24T01:36:53.774Z,12.24
2023-04-24T01:37:53.801Z,12.34
2023-04-24T01:38:53.736Z,12.31
2023-04-24T01:39:53.725Z,12.28
2023-04-24T01:40:58.758Z,12.37
2023-04-24T01:41:53.706Z,12.35
2023-04-24T01:42:53.712Z,12.35
2023-04-24T01:43:53.679Z,12.31
2023-04-24T01:44:53.693Z,12.39
2023-04-24T01:45:53.670Z,12.29
2023-04-24T01:46:53.665Z,12.35
2023-04-24T01:47:53.641Z,12.35
2023-04-24T01:48:53.641Z,12.37
2023-04-24T01:49:53.610Z,12.38
2023-04-24T01:50:53.602Z,12.29
2023-04-24T01:51:58.608Z,12.23
2023-04-24T01:52:53.581Z,12.31
2023-04-24T01:53:53.577Z,12.38
2023-04-24T01:54:53.587Z,12.27
2023-04-24T01:55:53.561Z,12.39
2023-04-24T01:56:53.544Z,12.35
2023-04-24T01:57:53.518Z,12.34
2023-04-24T01:58:53.527Z,12.39
2023-04-24T01:59:53.498Z,12.37
2023-04-24T02:00:53.556Z,12.38
2023-04-24T02:01:53.524Z,12.35
2023-04-24T02:02:58.638Z,12.34
2023-04-24T02:03:53.570Z,12.28
2023-04-24T02:04:53.436Z,12.37
2023-04-24T02:05:53.438Z,12.38
2023-04-24T02:06:53.438Z,12.34
2023-04-24T02:07:53.413Z,12.35
2023-04-24T02:08:53.392Z,12.46
2023-04-24T02:09:53.388Z,12.37
2023-04-24T02:10:53.397Z,12.41
2023-04-24T02:11:53.356Z,12.35
2023-04-24T02:12:53.358Z,12.35
2023-04-24T02:13:58.374Z,12.41
2023-04-24T02:14:53.324Z,12.47
2023-04-24T02:15:53.322Z,12.35
2023-04-24T02:16:53.524Z,12.42
2023-04-24T02:17:53.340Z,12.49
2023-04-24T02:18:53.297Z,12.35
2023-04-24T02:19:53.262Z,12.38
2023-04-24T02:20:53.265Z,12.35
2023-04-24T02:21:53.241Z,12.37
2023-04-24T02:22:53.243Z,12.42
2023-04-24T02:23:53.217Z,12.49
2023-04-24T02:24:58.274Z,12.35
2023-04-24T02:25:53.203Z,12.42
2023-04-24T02:26:53.189Z,12.38
2023-04-24T02:27:53.178Z,12.38
2023-04-24T02:28:53.161Z,12.42
2023-04-24T02:29:53.328Z,12.45
2023-04-24T02:30:53.173Z,12.46
2023-04-24T02:31:53.151Z,12.46
2023-04-24T02:32:53.116Z,12.35
2023-04-24T02:33:53.103Z,12.38
2023-04-24T02:34:53.113Z,12.45
2023-04-24T02:35:58.120Z,12.39
2023-04-24T02:36:53.083Z,12.39
2023-04-24T02:37:53.061Z,12.41
2023-04-24T02:38:53.051Z,12.38
2023-04-24T02:39:53.058Z,12.37
2023-04-24T02:40:53.036Z,12.37
2023-04-24T02:41:53.015Z,12.37
2023-04-24T02:42:53.025Z,12.34
2023-04-24T02:43:52.997Z,12.27
2023-04-24T02:44:52.982Z,12.29
2023-04-24T02:45:53.037Z,12.17
2023-04-24T02:46:57.992Z,12.04
2023-04-24T02:47:52.992Z,11.86
2023-04-24T02:48:52.952Z,11.86
2023-04-24T02:49:52.921Z,11.83
2023-04-24T02:50:52.936Z,11.69
2023-04-24T02:51:52.912Z,11.60
2023-04-24T02:52:52.888Z,11.60
2023-04-24T02:53:52.878Z,11.54
2023-04-24T02:54:52.886Z,11.49
2023-04-24T02:55:52.851Z,11.37
2023-04-24T02:56:52.850Z,11.46
2023-04-24T02:57:57.849Z,11.32
2023-04-24T02:58:52.818Z,11.29
2023-04-24T02:59:52.805Z,11.29
2023-04-24T03:00:52.941Z,11.33
2023-04-24T03:01:52.806Z,11.32
2023-04-24T03:02:52.860Z,11.33
2023-04-24T03:03:52.918Z,11.27
2023-04-24T03:04:52.756Z,11.32
2023-04-24T03:05:52.775Z,11.33
2023-04-24T03:06:52.754Z,11.35
2023-04-24T03:07:52.713Z,11.33
2023-04-24T03:08:57.722Z,11.35
2023-04-24T03:09:52.688Z,11.36
2023-04-24T03:10:52.691Z,11.37
2023-04-24T03:11:52.667Z,11.37
2023-04-24T03:12:52.670Z,11.43
2023-04-24T03:13:52.660Z,11.46
2023-04-24T03:14:52.641Z,11.55
2023-04-24T03:15:52.730Z,11.37
2023-04-24T03:16:52.620Z,11.35
2023-04-24T03:17:54.228Z,11.35
2023-04-24T03:18:52.627Z,11.42
2023-04-24T03:19:57.600Z,11.32
2023-04-24T03:20:52.566Z,11.35
2023-04-24T03:21:52.567Z,11.35
2023-04-24T03:22:52.555Z,11.29
2023-04-24T03:23:52.532Z,11.29
2023-04-24T03:24:52.542Z,11.25
2023-04-24T03:25:52.510Z,11.27
2023-04-24T03:26:52.509Z,11.21
2023-04-24T03:27:52.489Z,11.28
2023-04-24T03:28:52.477Z,11.28
2023-04-24T03:29:52.468Z,11.33
2023-04-24T03:30:57.503Z,11.35
2023-04-24T03:31:52.632Z,11.32
2023-04-24T03:32:52.471Z,11.40
2023-04-24T03:33:52.443Z,11.27
2023-04-24T03:34:52.420Z,11.27
2023-04-24T03:35:52.395Z,11.27
2023-04-24T03:36:52.415Z,11.22
2023-04-24T03:37:52.378Z,11.14
2023-04-24T03:38:52.363Z,11.15
2023-04-24T03:39:52.349Z,11.19
2023-04-24T03:40:52.356Z,11.17
2023-04-24T03:41:57.359Z,11.14
2023-04-24T03:42:52.333Z,11.22
2023-04-24T03:43:52.309Z,11.15
2023-04-24T03:44:52.305Z,11.24
2023-04-24T03:45:52.311Z,11.18
2023-04-24T03:46:52.285Z,11.17
2023-04-24T03:47:52.293Z,11.09
2023-04-24T03:48:52.270Z,11.24
2023-04-24T03:49:52.269Z,11.28
2023-04-24T03:50:52.233Z,11.22
2023-04-24T03:51:52.221Z,11.22
2023-04-24T03:52:57.231Z,11.19
2023-04-24T03:53:52.190Z,11.28
2023-04-24T03:54:52.202Z,11.10
2023-04-24T03:55:52.165Z,11.11
2023-04-24T03:56:52.186Z,11.15
2023-04-24T03:57:52.145Z,11.07
2023-04-24T03:58:52.132Z,11.11
2023-04-24T03:59:52.119Z,11.11
2023-04-24T04:00:52.142Z,11.14
2023-04-24T04:01:52.170Z,11.09
2023-04-24T04:02:52.277Z,11.17
2023-04-24T04:03:57.272Z,11.00
2023-04-24T04:04:52.173Z,11.15
2023-04-24T04:05:52.079Z,11.09
2023-04-24T04:06:52.077Z,11.03
2023-04-24T04:07:52.038Z,11.11
2023-04-24T04:08:52.032Z,11.11
2023-04-24T04:09:52.013Z,11.06
2023-04-24T04:10:51.999Z,11.03
2023-04-24T04:11:52.004Z,11.09
2023-04-24T04:12:51.990Z,11.03
2023-04-24T04:13:51.972Z,11.04
2023-04-24T04:14:56.985Z,11.03
2023-04-24T04:15:51.978Z,11.06
2023-04-24T04:16:54.576Z,10.96
2023-04-24T04:17:52.040Z,11.02
2023-04-24T04:18:51.939Z,10.97
2023-04-24T04:19:51.893Z,10.99
2023-04-24T04:20:51.885Z,10.92
2023-04-24T04:21:51.908Z,11.03
2023-04-24T04:22:51.865Z,11.03
2023-04-24T04:23:51.847Z,10.96
2023-04-24T04:24:51.867Z,11.00
2023-04-24T04:25:56.849Z,10.99
2023-04-24T04:26:51.824Z,10.96
2023-04-24T04:27:51.800Z,10.96
2023-04-24T04:28:51.818Z,10.97
2023-04-24T04:29:51.787Z,10.94
2023-04-24T04:30:51.802Z,10.91
2023-04-24T04:31:51.881Z,10.94
2023-04-24T04:32:51.757Z,10.96
2023-04-24T04:33:51.736Z,11.00
2023-04-24T04:34:51.728Z,10.92
2023-04-24T04:35:51.715Z,10.94
2023-04-24T04:36:56.761Z,10.88
2023-04-24T04:37:51.694Z,10.82
2023-04-24T04:38:51.690Z,10.88
2023-04-24T04:39:51.692Z,10.84
2023-04-24T04:40:51.659Z,10.84
2023-04-24T04:41:51.657Z,10.81
2023-04-24T04:42:51.682Z,10.85
2023-04-24T04:43:51.626Z,10.84
2023-04-24T04:44:51.614Z,10.84
2023-04-24T04:45:51.647Z,10.85
2023-04-24T04:46:51.602Z,10.86
2023-04-24T04:47:56.700Z,10.85
2023-04-24T04:48:51.587Z,10.91
2023-04-24T04:49:51.573Z,10.89
2023-04-24T04:50:51.547Z,10.79
2023-04-24T04:51:51.544Z,10.76
2023-04-24T04:52:51.551Z,10.85
2023-04-24T04:53:51.517Z,10.70
2023-04-24T04:54:51.523Z,10.76
2023-04-24T04:55:51.490Z,10.71
2023-04-24T04:56:51.489Z,10.68
2023-04-24T04:57:51.466Z,10.74
2023-04-24T04:58:56.483Z,10.79
2023-04-24T04:59:51.444Z,10.74
2023-04-24T05:00:51.495Z,10.70
2023-04-24T05:01:51.429Z,10.70
2023-04-24T05:02:51.613Z,10.70
2023-04-24T05:03:51.508Z,10.79
2023-04-24T05:04:51.711Z,10.73
2023-04-24T05:05:51.381Z,10.82
2023-04-24T05:06:51.397Z,10.86
2023-04-24T05:07:51.357Z,10.88
2023-04-24T05:08:51.366Z,10.84
2023-04-24T05:09:56.363Z,10.86
2023-04-24T05:10:51.323Z,10.89
2023-04-24T05:11:51.321Z,10.92
2023-04-24T05:12:51.322Z,11.03
2023-04-24T05:13:51.295Z,10.96
2023-04-24T05:14:51.277Z,11.02
2023-04-24T05:15:51.270Z,10.92
2023-04-24T05:16:51.288Z,11.00
2023-04-24T05:17:51.287Z,10.94
2023-04-24T05:18:51.252Z,10.97
2023-04-24T05:19:51.225Z,11.04
2023-04-24T05:20:56.233Z,11.03
2023-04-24T05:21:51.212Z,11.07
2023-04-24T05:22:51.192Z,11.11
2023-04-24T05:23:51.175Z,11.18
2023-04-24T05:24:51.191Z,11.21
2023-04-24T05:25:51.157Z,11.21
2023-04-24T05:26:51.157Z,11.27
2023-04-24T05:27:51.132Z,11.29
2023-04-24T05:28:51.122Z,11.28
2023-04-24T05:29:51.115Z,11.27
2023-04-24T05:30:51.114Z,11.29
2023-04-24T05:31:56.232Z,11.29
2023-04-24T05:32:51.090Z,11.37
2023-04-24T05:33:51.064Z,11.35
2023-04-24T05:34:51.055Z,11.36
2023-04-24T05:35:51.043Z,11.33
2023-04-24T05:36:51.058Z,11.33
2023-04-24T05:37:51.070Z,11.29
2023-04-24T05:38:51.009Z,11.29
2023-04-24T05:39:50.993Z,11.36
2023-04-24T05:40:51.016Z,11.51
2023-04-24T05:41:50.984Z,11.61
2023-04-24T05:42:56.018Z,11.70
2023-04-24T05:43:50.981Z,11.79
2023-04-24T05:44:53.253Z,11.96
2023-04-24T05:45:50.931Z,11.99
2023-04-24T05:46:51.021Z,11.98
2023-04-24T05:47:50.958Z,11.95
2023-04-24T05:48:50.905Z,12.28
2023-04-24T05:49:50.902Z,12.52
2023-04-24T05:50:50.871Z,12.64
2023-04-24T05:51:50.870Z,12.68
2023-04-24T05:52:50.854Z,12.56
2023-04-24T05:53:55.861Z,12.72
2023-04-24T05:54:50.843Z,13.01
2023-04-24T05:55:50.835Z,13.17
2023-04-24T05:56:50.861Z,13.05
2023-04-24T05:57:50.796Z,12.86
2023-04-24T05:58:50.782Z,12.71
2023-04-24T05:59:50.771Z,12.64
2023-04-24T06:00:50.781Z,12.47
2023-04-24T06:01:50.807Z,12.38
2023-04-24T06:02:50.935Z,12.27
2023-04-24T06:03:50.845Z,12.17
2023-04-24T06:04:55.820Z,12.13
2023-04-24T06:05:50.703Z,12.12
2023-04-24T06:06:50.709Z,12.10
2023-04-24T06:07:50.724Z,12.13
2023-04-24T06:08:50.667Z,11.98
2023-04-24T06:09:50.670Z,12.14
2023-04-24T06:10:50.644Z,12.16
2023-04-24T06:11:50.639Z,12.23
2023-04-24T06:12:50.639Z,12.29
2023-04-24T06:13:50.625Z,12.32
2023-04-24T06:14:50.602Z,12.41
2023-04-24T06:15:55.625Z,12.34
2023-04-24T06:16:50.718Z,12.21
2023-04-24T06:17:50.591Z,12.23
2023-04-24T06:18:50.551Z,12.39
2023-04-24T06:19:50.561Z,12.31
2023-04-24T06:20:50.540Z,12.21
2023-04-24T06:21:50.528Z,12.28
2023-04-24T06:22:50.508Z,12.20
2023-04-24T06:23:50.495Z,12.17
2023-04-24T06:24:50.485Z,12.17
2023-04-24T06:25:50.487Z,12.29
2023-04-24T06:26:55.491Z,12.23
2023-04-24T06:27:50.465Z,12.24
2023-04-24T06:28:50.463Z,12.27
2023-04-24T06:29:50.431Z,12.12
2023-04-24T06:30:50.417Z,12.10
2023-04-24T06:31:50.426Z,12.07
2023-04-24T06:32:50.428Z,12.04
2023-04-24T06:33:50.400Z,11.96
2023-04-24T06:34:50.370Z,11.98
2023-04-24T06:35:50.357Z,11.88
2023-04-24T06:36:50.352Z,11.88
2023-04-24T06:37:55.389Z,11.69
2023-04-24T06:38:50.321Z,11.65
2023-04-24T06:39:50.311Z,11.54
2023-04-24T06:40:50.301Z,11.52
2023-04-24T06:41:50.290Z,11.54
2023-04-24T06:42:50.374Z,11.40
2023-04-24T06:43:50.278Z,11.29
2023-04-24T06:44:50.282Z,11.22
2023-04-24T06:45:50.284Z,11.18
2023-04-24T06:46:50.230Z,11.10
2023-04-24T06:47:50.280Z,11.07
2023-04-24T06:48:55.232Z,11.04
2023-04-24T06:49:50.223Z,11.00
2023-04-24T06:50:50.185Z,10.96
2023-04-24T06:51:50.174Z,10.99
2023-04-24T06:52:50.172Z,10.92
2023-04-24T06:53:50.153Z,10.91
2023-04-24T06:54:50.146Z,10.94
2023-04-24T06:55:50.149Z,10.99
2023-04-24T06:56:50.133Z,10.92
2023-04-24T06:57:50.127Z,11.02
2023-04-24T06:58:50.103Z,11.02
2023-04-24T06:59:55.123Z,10.96
2023-04-24T07:00:50.072Z,10.97
2023-04-24T07:01:50.198Z,10.94
2023-04-24T07:02:50.184Z,10.91
2023-04-24T07:03:50.189Z,11.02
2023-04-24T07:04:50.028Z,10.99
2023-04-24T07:05:50.017Z,11.09
2023-04-24T07:06:50.005Z,11.09
2023-04-24T07:07:50.039Z,11.11
2023-04-24T07:08:50.060Z,11.15
2023-04-24T07:09:50.079Z,11.04
2023-04-24T07:10:54.978Z,11.15
2023-04-24T07:11:49.946Z,11.17
2023-04-24T07:12:49.941Z,11.33
2023-04-24T07:13:49.948Z,11.62
2023-04-24T07:14:49.914Z,11.70
2023-04-24T07:15:50.029Z,11.82
2023-04-24T07:16:49.892Z,11.99
2023-04-24T07:17:49.953Z,12.16
2023-04-24T07:18:49.867Z,12.39
2023-04-24T07:19:49.866Z,12.42
2023-04-24T07:20:49.842Z,12.46
2023-04-24T07:21:54.855Z,12.53
2023-04-24T07:22:49.825Z,12.59
2023-04-24T07:23:49.811Z,12.70
2023-04-24T07:24:49.801Z,12.74
2023-04-24T07:25:49.846Z,13.04
2023-04-24T07:26:49.785Z,13.17
2023-04-24T07:27:49.773Z,13.11
2023-04-24T07:28:49.749Z,13.04
2023-04-24T07:29:49.748Z,12.90
2023-04-24T07:30:49.732Z,12.75
2023-04-24T07:31:49.790Z,12.57
2023-04-24T07:32:54.799Z,12.45
2023-04-24T07:33:49.711Z,12.35
2023-04-24T07:34:49.684Z,12.23
2023-04-24T07:35:49.678Z,12.04
2023-04-24T07:36:49.673Z,11.96
2023-04-24T07:37:49.679Z,11.99
2023-04-24T07:38:49.640Z,12.05
2023-04-24T07:39:49.633Z,12.13
2023-04-24T07:40:49.617Z,12.23
2023-04-24T07:41:49.608Z,12.32
2023-04-24T07:42:49.603Z,12.27
2023-04-24T07:43:54.680Z,12.50
2023-04-24T07:44:49.568Z,12.59
2023-04-24T07:45:49.682Z,12.71
2023-04-24T07:46:49.690Z,12.71
2023-04-24T07:47:49.647Z,12.86
2023-04-24T07:48:58.596Z,13.03
2023-04-24T07:49:49.549Z,13.20
2023-04-24T07:50:49.503Z,13.22
2023-04-24T07:51:49.490Z,13.26
2023-04-24T07:52:49.500Z,13.36
2023-04-24T07:53:49.465Z,13.51
2023-04-24T07:54:54.476Z,13.52
2023-04-24T07:55:49.458Z,13.51
2023-04-24T07:56:49.434Z,13.51
2023-04-24T07:57:49.491Z,13.51
2023-04-24T07:58:49.410Z,13.41
2023-04-24T07:59:49.407Z,13.33
2023-04-24T08:00:49.387Z,13.64
2023-04-24T08:01:49.400Z,13.66
2023-04-24T08:02:49.515Z,13.79
2023-04-24T08:03:49.578Z,14.15
2023-04-24T08:04:49.513Z,14.18
2023-04-24T08:05:54.430Z,13.95
2023-04-24T08:06:49.331Z,13.81
2023-04-24T08:07:49.322Z,13.95
2023-04-24T08:08:49.303Z,14.20
2023-04-24T08:09:49.304Z,14.22
2023-04-24T08:10:49.271Z,14.06
2023-04-24T08:11:49.265Z,13.92
2023-04-24T08:12:49.267Z,13.77
2023-04-24T08:13:49.307Z,13.75
2023-04-24T08:14:49.229Z,13.89
2023-04-24T08:15:49.256Z,14.07
2023-04-24T08:16:54.227Z,14.10
2023-04-24T08:17:49.228Z,14.20
2023-04-24T08:18:49.182Z,14.33
2023-04-24T08:19:49.356Z,14.32
2023-04-24T08:20:49.163Z,14.40
2023-04-24T08:21:49.153Z,14.51
2023-04-24T08:22:49.150Z,14.40
2023-04-24T08:23:49.130Z,14.33
2023-04-24T08:24:49.117Z,14.27
2023-04-24T08:25:49.163Z,14.21
2023-04-24T08:26:49.095Z,14.03
2023-04-24T08:27:54.113Z,13.84
2023-04-24T08:28:49.077Z,13.71
2023-04-24T08:29:49.057Z,13.79
2023-04-24T08:30:49.058Z,13.67
2023-04-24T08:31:49.127Z,13.64
2023-04-24T08:32:49.058Z,13.66
2023-04-24T08:33:49.010Z,13.46
2023-04-24T08:34:49.858Z,13.48
2023-04-24T08:35:49.004Z,13.59
2023-04-24T08:36:48.990Z,13.78
2023-04-24T08:37:49.019Z,13.85
2023-04-24T08:38:53.971Z,14.02
2023-04-24T08:39:48.940Z,13.87
2023-04-24T08:40:48.936Z,13.96
2023-04-24T08:41:48.918Z,14.07
2023-04-24T08:42:49.707Z,14.27
2023-04-24T08:43:49.433Z,14.35
2023-04-24T08:44:48.884Z,14.36
2023-04-24T08:45:48.913Z,14.32
2023-04-24T08:46:48.946Z,14.28
2023-04-24T08:47:48.881Z,14.36
2023-04-24T08:48:48.864Z,14.29
2023-04-24T08:49:53.849Z,14.10
2023-04-24T08:50:48.819Z,13.96
2023-04-24T08:51:48.889Z,13.84
2023-04-24T08:52:48.806Z,13.79
2023-04-24T08:53:48.778Z,13.79
2023-04-24T08:54:48.786Z,13.66
2023-04-24T08:55:48.756Z,13.57
2023-04-24T08:56:48.742Z,13.51
2023-04-24T08:57:48.750Z,13.52
2023-04-24T08:58:48.721Z,13.41
2023-04-24T08:59:48.722Z,13.26
2023-04-24T09:00:53.741Z,13.38
2023-04-24T09:01:48.818Z,13.28
2023-04-24T09:02:48.779Z,13.12
2023-04-24T09:03:48.869Z,13.04
2023-04-24T09:04:48.965Z,12.85
2023-04-24T09:05:48.646Z,12.90
2023-04-24T09:06:48.651Z,12.77
2023-04-24T09:07:48.652Z,12.75
2023-04-24T09:08:48.622Z,12.82
2023-04-24T09:09:48.599Z,12.79
2023-04-24T09:10:50.587Z,12.87
2023-04-24T09:11:53.598Z,12.87
2023-04-24T09:12:48.591Z,12.77
2023-04-24T09:13:48.550Z,12.77
2023-04-24T09:14:48.542Z,12.83
2023-04-24T09:15:48.541Z,12.83
2023-04-24T09:16:48.607Z,12.87
2023-04-24T09:17:48.609Z,12.93
2023-04-24T09:18:48.514Z,12.86
2023-04-24T09:19:48.485Z,12.79
2023-04-24T09:20:48.476Z,12.82
2023-04-24T09:21:48.460Z,12.77
2023-04-24T09:22:53.497Z,12.72
2023-04-24T09:23:48.440Z,12.72
2023-04-24T09:24:48.445Z,12.74
2023-04-24T09:25:48.419Z,12.71
2023-04-24T09:26:48.407Z,12.75
2023-04-24T09:27:48.406Z,12.78
2023-04-24T09:28:48.377Z,12.92
2023-04-24T09:29:48.369Z,13.05
2023-04-24T09:30:48.361Z,13.11
2023-04-24T09:31:48.443Z,13.20
2023-04-24T09:32:48.375Z,13.32
2023-04-24T09:33:53.347Z,13.38
2023-04-24T09:34:48.310Z,13.51
2023-04-24T09:35:48.305Z,13.62
2023-04-24T09:36:48.288Z,13.63
2023-04-24T09:37:48.312Z,13.62
2023-04-24T09:38:48.303Z,13.70
2023-04-24T09:39:48.260Z,13.73
2023-04-24T09:40:48.245Z,13.71
2023-04-24T09:41:48.232Z,13.73
2023-04-24T09:42:48.231Z,13.73
2023-04-24T09:43:48.232Z,13.71
2023-04-24T09:44:58.890Z,13.60
2023-04-24T09:45:48.242Z,13.49
2023-04-24T09:46:48.181Z,13.41
2023-04-24T09:47:48.238Z,13.32
2023-04-24T09:48:48.157Z,13.39
2023-04-24T09:49:48.166Z,13.39
2023-04-24T09:50:48.172Z,13.32
2023-04-24T09:51:48.123Z,13.22
2023-04-24T09:52:48.118Z,13.17
2023-04-24T09:53:48.105Z,13.11
2023-04-24T09:54:48.107Z,13.12
2023-04-24T09:55:53.123Z,13.10
2023-04-24T09:56:48.062Z,13.32
2023-04-24T09:57:48.064Z,13.41
2023-04-24T09:58:48.047Z,13.51
2023-04-24T09:59:48.036Z,13.66
2023-04-24T10:00:48.026Z,13.82
2023-04-24T10:01:48.080Z,13.78
2023-04-24T10:02:48.084Z,13.87
2023-04-24T10:03:48.010Z,13.97
2023-04-24T10:04:48.002Z,13.69
2023-04-24T10:05:47.966Z,13.88
2023-04-24T10:06:52.979Z,13.78
2023-04-24T10:07:50.077Z,13.84
2023-04-24T10:08:47.937Z,13.78
2023-04-24T10:09:47.923Z,13.78
2023-04-24T10:10:47.929Z,13.73
2023-04-24T10:11:47.900Z,13.62
2023-04-24T10:12:47.892Z,13.57
2023-04-24T10:13:47.896Z,13.39
2023-04-24T10:14:48.673Z,13.10
2023-04-24T10:15:47.999Z,13.11
2023-04-24T10:16:47.918Z,13.00
2023-04-24T10:17:52.890Z,13.14
2023-04-24T10:18:47.827Z,13.19
2023-04-24T10:19:47.810Z,13.14
2023-04-24T10:20:47.807Z,13.12
2023-04-24T10:21:47.787Z,13.05
2023-04-24T10:22:47.776Z,13.12
2023-04-24T10:23:47.782Z,13.22
2023-04-24T10:24:47.752Z,13.36
2023-04-24T10:25:47.757Z,13.66
2023-04-24T10:26:47.759Z,13.85
2023-04-24T10:27:47.722Z,14.21
2023-04-24T10:28:52.740Z,14.40
2023-04-24T10:29:47.698Z,14.45
2023-04-24T10:30:47.690Z,14.70
2023-04-24T10:31:48.029Z,14.95
2023-04-24T10:32:47.718Z,15.06
2023-04-24T10:33:47.663Z,15.14
2023-04-24T10:34:47.640Z,15.14
2023-04-24T10:35:47.629Z,15.11
2023-04-24T10:36:47.618Z,15.09
2023-04-24T10:37:47.605Z,15.19
2023-04-24T10:38:47.612Z,15.36
2023-04-24T10:39:52.606Z,15.69
2023-04-24T10:40:47.693Z,16.00
2023-04-24T10:41:47.572Z,15.97
2023-04-24T10:42:47.577Z,16.02
2023-04-24T10:43:47.631Z,15.94
2023-04-24T10:44:47.528Z,15.72
2023-04-24T10:45:47.515Z,15.62
2023-04-24T10:46:47.566Z,15.50
2023-04-24T10:47:47.528Z,15.35
2023-04-24T10:48:47.600Z,15.23
2023-04-24T10:49:47.474Z,15.02
2023-04-24T10:50:52.487Z,15.01
2023-04-24T10:51:47.448Z,15.02
2023-04-24T10:52:47.435Z,14.92
2023-04-24T10:53:47.439Z,14.80
2023-04-24T10:54:47.521Z,14.89
2023-04-24T10:55:47.402Z,14.80
2023-04-24T10:56:47.390Z,14.91
2023-04-24T10:57:47.384Z,15.28
2023-04-24T10:58:47.449Z,15.29
2023-04-24T10:59:47.360Z,15.13
2023-04-24T11:00:47.439Z,14.96
2023-04-24T11:01:52.353Z,14.86
2023-04-24T11:02:47.461Z,14.72
2023-04-24T11:03:47.541Z,14.73
2023-04-24T11:04:47.477Z,14.68
2023-04-24T11:05:47.294Z,14.86
2023-04-24T11:06:47.381Z,14.88
2023-04-24T11:07:47.262Z,14.83
2023-04-24T11:08:47.265Z,14.81
2023-04-24T11:09:47.252Z,14.75
2023-04-24T11:10:47.255Z,14.64
2023-04-24T11:11:47.225Z,14.57
2023-04-24T11:12:52.308Z,14.57
2023-04-24T11:13:47.202Z,14.69
2023-04-24T11:14:47.214Z,14.60
2023-04-24T11:15:47.186Z,14.64
2023-04-24T11:16:47.256Z,14.70
2023-04-24T11:17:47.153Z,14.72
2023-04-24T11:18:47.233Z,14.75
2023-04-24T11:19:47.127Z,14.58
2023-04-24T11:20:47.117Z,14.62
2023-04-24T11:21:47.107Z,14.61
2023-04-24T11:22:47.117Z,14.73
2023-04-24T11:23:52.110Z,14.81
2023-04-24T11:24:47.117Z,15.06
2023-04-24T11:25:47.056Z,15.14
2023-04-24T11:26:47.047Z,15.03
2023-04-24T11:27:47.034Z,15.19
2023-04-24T11:28:47.037Z,15.19
2023-04-24T11:29:47.006Z,15.21
2023-04-24T11:30:47.073Z,15.10
2023-04-24T11:31:47.031Z,15.06
2023-04-24T11:32:47.010Z,15.27
2023-04-24T11:33:46.964Z,15.31
2023-04-24T11:34:51.993Z,15.19
2023-04-24T11:35:46.950Z,15.21
2023-04-24T11:36:47.041Z,15.13
2023-04-24T11:37:49.519Z,14.95
2023-04-24T11:38:46.911Z,15.13
2023-04-24T11:39:46.907Z,15.10
2023-04-24T11:40:46.889Z,15.03
2023-04-24T11:41:46.879Z,14.99
2023-04-24T11:42:46.951Z,14.84
2023-04-24T11:43:46.853Z,14.68
2023-04-24T11:44:46.848Z,14.65
2023-04-24T11:45:52.031Z,14.51
2023-04-24T11:46:46.837Z,14.42
2023-04-24T11:47:46.893Z,14.42
2023-04-24T11:48:46.821Z,14.37
2023-04-24T11:49:46.791Z,14.33
2023-04-24T11:50:46.772Z,14.39
2023-04-24T11:51:53.279Z,14.35
2023-04-24T11:52:46.759Z,14.32
2023-04-24T11:53:47.754Z,14.33
2023-04-24T11:54:46.818Z,14.17
2023-04-24T11:55:46.714Z,14.12
2023-04-24T11:56:51.730Z,14.02
2023-04-24T11:57:46.689Z,13.97
2023-04-24T11:58:46.699Z,13.85
2023-04-24T11:59:46.673Z,13.77
2023-04-24T12:00:46.787Z,13.82
2023-04-24T12:01:46.667Z,13.87
2023-04-24T12:02:46.811Z,13.88
2023-04-24T12:03:46.750Z,13.84
2023-04-24T12:04:46.905Z,13.78
2023-04-24T12:05:46.771Z,13.70
2023-04-24T12:06:46.694Z,13.70
2023-04-24T12:07:51.601Z,13.69
2023-04-24T12:08:46.585Z,13.69
2023-04-24T12:09:47.629Z,13.67
2023-04-24T12:10:46.549Z,13.69
2023-04-24T12:11:46.536Z,13.91
2023-04-24T12:12:46.640Z,14.45
2023-04-24T12:13:46.517Z,14.68
2023-04-24T12:14:46.526Z,14.88
2023-04-24T12:15:46.517Z,15.06
2023-04-24T12:16:46.480Z,15.02
2023-04-24T12:17:46.537Z,15.17
2023-04-24T12:18:51.565Z,15.19
2023-04-24T12:19:46.474Z,15.29
2023-04-24T12:20:46.434Z,15.43
2023-04-24T12:21:46.435Z,15.44
2023-04-24T12:22:46.425Z,15.35
2023-04-24T12:23:46.397Z,15.17
2023-04-24T12:24:46.469Z,15.53
2023-04-24T12:25:46.371Z,15.49
2023-04-24T12:26:46.373Z,15.50
2023-04-24T12:27:46.366Z,15.39
2023-04-24T12:28:46.352Z,15.38
2023-04-24T12:29:51.361Z,15.27
2023-04-24T12:30:46.431Z,15.13
2023-04-24T12:31:46.459Z,15.14
2023-04-24T12:32:46.371Z,14.92
2023-04-24T12:33:46.305Z,14.72
2023-04-24T12:34:46.290Z,14.70
2023-04-24T12:35:46.265Z,14.69
2023-04-24T12:36:46.287Z,14.62
2023-04-24T12:37:47.648Z,14.51
2023-04-24T12:38:46.229Z,14.36
2023-04-24T12:39:46.231Z,14.32
2023-04-24T12:40:51.226Z,14.15
2023-04-24T12:41:46.204Z,14.14
2023-04-24T12:42:46.249Z,14.06
2023-04-24T12:43:46.171Z,14.07
2023-04-24T12:44:46.177Z,14.12
2023-04-24T12:45:46.185Z,14.02
2023-04-24T12:46:46.206Z,13.96
2023-04-24T12:47:46.128Z,13.99
2023-04-24T12:48:46.249Z,13.89
2023-04-24T12:49:46.133Z,13.75
2023-04-24T12:50:47.282Z,13.89
2023-04-24T12:51:51.103Z,13.96
2023-04-24T12:52:46.075Z,14.10